Alexandria, LA (71301)

1:23 PM CST on December 02, 2016 (GMT -0600)
Charles Place | | Change Station

Elev 80 ft 31.28 °N, 92.49 °W | Updated 10 seconds ago

Clear
Clear
62.7 °F
Feels Like 62.7 °F
N
1.0
Wind Variable Wind from NE
Gusts 6.0 mph

Today
High -- | Low -- °F
--% Chance of Precip.
Yesterday
High -- | Low -- °F
Precip. -- in
Pressure 30.17 in
Visibility 10.0 miles
Clouds Clear
Dew Point 41 °F
Humidity 45%
Rainfall 0.00 in
Snow Depth Not available.
6:52 AM 5:06 PM
Waxing Crescent, 10% visible
METAR KAEX 021853Z 11006KT 10SM CLR 17/M01 A3016 RMK AO2 SLP216 T01721006
Pressure 30.17 in
Visibility 10.0 miles
Clouds Clear
Dew Point 41 °F
Humidity 45%
Rainfall 0.00 in
Snow Depth Not available.
6:52 AM 5:06 PM
Waxing Crescent, 10% visible
METAR KAEX 021853Z 11006KT 10SM CLR 17/M01 A3016 RMK AO2 SLP216 T01721006

10-Day Weather Forecast

Almanac

Astronomy

Dec. 02, 2016 Rise Set
Actual Time
Civil Twilight
Nautical Twilight
Astronomical Twilight
Moon
Length of Visible Light
Length of Day
Tomorrow will be .
, % of the Moon is Illuminated

Today's Extremes

State Highs State Lows

Community

WunderPhotos

Upload Photos

1,955,343 photos uploaded!

WunderBlog® & News

Nearby

Air Quality

  Air Quality AQ Index Pollutant
Not available.

Snow Depth

Station Depth Elevation

Earthquake Activity

City Distance Mag. Time & Date
Minimum magnitude displayed is 2.5.

Coastal Water Temperatures

Place Temperature

Stations

Nearby Weather Stations

Station Location Temp. Windchill Dew Point Humidity Wind Precip. Elev Updated Type
                   

Watches & Warnings

There are currently no watches in effect.